createdAt,value
2022-10-03T00:00:32.937Z,99791.31
2022-10-03T00:03:22.886Z,99794.34
2022-10-03T00:05:56.268Z,99784.25
2022-10-03T00:09:01.623Z,99787.91
2022-10-03T00:11:41.341Z,99799.31
2022-10-03T00:14:30.159Z,99804.53
2022-10-03T00:17:39.168Z,99804.38
2022-10-03T00:20:45.285Z,99803.69
2022-10-03T00:23:24.120Z,99807.88
2022-10-03T00:26:27.635Z,99810.84
2022-10-03T00:29:01.245Z,99804.47
2022-10-03T00:31:34.777Z,99804.59
2022-10-03T00:34:19.566Z,99816.28
2022-10-03T00:37:26.269Z,99808.28
2022-10-03T00:40:50.807Z,99810.63
2022-10-03T00:43:33.275Z,99809.09
2022-10-03T00:46:17.658Z,99830.19
2022-10-03T00:49:23.591Z,99810.84
2022-10-03T00:52:17.039Z,99817.00
2022-10-03T00:54:56.430Z,99825.66
2022-10-03T00:57:46.172Z,99818.78
2022-10-03T01:00:18.488Z,99820.94
2022-10-03T01:02:52.194Z,99812.81
2022-10-03T01:05:45.814Z,99812.50
2022-10-03T01:08:31.523Z,99805.22
2022-10-03T01:11:07.933Z,99806.28
2022-10-03T01:13:50.428Z,99792.84
2022-10-03T01:16:37.904Z,99798.09
2022-10-03T01:19:45.773Z,99799.25
2022-10-03T01:22:28.927Z,99804.50
2022-10-03T01:25:25.675Z,99811.75
2022-10-03T01:28:34.011Z,99816.78
2022-10-03T01:31:03.396Z,99827.16
2022-10-03T01:33:37.590Z,99829.66
2022-10-03T01:36:26.203Z,99835.72
2022-10-03T01:39:00.566Z,99844.44
2022-10-03T01:41:44.619Z,99843.63
2022-10-03T01:44:40.467Z,99839.47
2022-10-03T01:47:20.969Z,99847.53
2022-10-03T01:49:51.783Z,99844.16
2022-10-03T01:52:37.207Z,99845.62
2022-10-03T01:55:32.883Z,99846.75
2022-10-03T01:58:11.157Z,99845.72
2022-10-03T02:01:23.307Z,99852.19
2022-10-03T02:03:57.608Z,99852.19
2022-10-03T02:06:38.332Z,99842.41
2022-10-03T02:09:26.559Z,99843.47
2022-10-03T02:12:01.909Z,99847.81
2022-10-03T02:14:41.865Z,99851.34
2022-10-03T02:17:22.624Z,99865.16
2022-10-03T02:20:13.780Z,99865.06
2022-10-03T02:22:46.189Z,99864.28
2022-10-03T02:25:25.639Z,99865.22
2022-10-03T02:28:08.070Z,99863.50
2022-10-03T02:30:37.148Z,99859.88
2022-10-03T02:33:19.634Z,99874.62
2022-10-03T02:35:57.408Z,99873.56
2022-10-03T02:38:54.668Z,99873.63
2022-10-03T02:41:32.721Z,99869.94
2022-10-03T02:44:15.760Z,99884.84
2022-10-03T02:47:37.349Z,99879.87
2022-10-03T02:50:38.890Z,99875.25
2022-10-03T02:53:35.727Z,99877.03
2022-10-03T02:56:51.413Z,99874.25
2022-10-03T02:59:32.109Z,99880.53
2022-10-03T03:02:09.873Z,99886.69
2022-10-03T03:04:52.108Z,99878.81
2022-10-03T03:07:49.085Z,99873.44
2022-10-03T03:10:52.548Z,99871.78
2022-10-03T03:13:41.198Z,99871.78
2022-10-03T03:16:50.416Z,99876.25
2022-10-03T03:19:26.498Z,99879.03
2022-10-03T03:22:04.034Z,99878.22
2022-10-03T03:24:59.575Z,99877.38
2022-10-03T03:27:39.823Z,99881.81
2022-10-03T03:30:20.538Z,99876.75
2022-10-03T03:33:11.125Z,99886.22
2022-10-03T03:36:01.615Z,99880.00
2022-10-03T03:39:04.203Z,99878.37
2022-10-03T03:41:45.289Z,99879.13
2022-10-03T03:44:42.666Z,99882.66
2022-10-03T03:47:34.758Z,99888.81
2022-10-03T03:50:29.847Z,99893.00
2022-10-03T03:53:51.305Z,99891.06
2022-10-03T03:56:27.611Z,99889.47
2022-10-03T03:59:08.435Z,99895.50
2022-10-03T04:01:46.639Z,99894.81
2022-10-03T04:04:39.234Z,99891.19
2022-10-03T04:07:19.487Z,99898.25
2022-10-03T04:10:07.389Z,99898.16
2022-10-03T04:13:19.262Z,99901.13
2022-10-03T04:16:00.545Z,99895.84
2022-10-03T04:18:54.631Z,99897.78
2022-10-03T04:22:03.909Z,99895.09
2022-10-03T04:24:46.192Z,99897.62
2022-10-03T04:27:18.318Z,99906.34
2022-10-03T04:30:10.051Z,99909.22
2022-10-03T04:32:59.855Z,99921.69
2022-10-03T04:35:33.259Z,99925.09
2022-10-03T04:38:12.002Z,99930.41
2022-10-03T04:40:59.836Z,99932.91
2022-10-03T04:43:52.520Z,99933.75
2022-10-03T04:46:27.783Z,99933.75
2022-10-03T04:49:05.284Z,99932.09
2022-10-03T04:51:41.834Z,99935.44
2022-10-03T04:54:21.946Z,99940.53
2022-10-03T04:57:07.923Z,99939.09
2022-10-03T04:59:42.798Z,99948.72
2022-10-03T05:02:30.527Z,99948.66
2022-10-03T05:05:23.123Z,99953.97
2022-10-03T05:07:56.482Z,99950.59
2022-10-03T05:10:39.237Z,99957.75
2022-10-03T05:13:13.531Z,99953.31
2022-10-03T05:15:51.785Z,99958.47
2022-10-03T05:18:37.868Z,99963.78
2022-10-03T05:21:14.411Z,99957.72
2022-10-03T05:24:02.865Z,99956.72
2022-10-03T05:26:44.942Z,99947.03
2022-10-03T05:29:17.747Z,99947.84
2022-10-03T05:32:10.132Z,99939.97
2022-10-03T05:34:49.621Z,99943.62
2022-10-03T05:37:28.992Z,99945.69
2022-10-03T05:40:14.492Z,99939.25
2022-10-03T05:43:01.724Z,99934.84
2022-10-03T05:45:36.426Z,99937.16
2022-10-03T05:48:11.503Z,99944.22
2022-10-03T05:50:56.644Z,99956.37
2022-10-03T05:53:30.235Z,99945.69
2022-10-03T05:56:27.141Z,99954.63
2022-10-03T05:59:25.696Z,99956.91
2022-10-03T06:02:14.690Z,99958.13
2022-10-03T06:04:53.380Z,99958.88
2022-10-03T06:07:29.323Z,99953.00
2022-10-03T06:10:21.517Z,99963.16
2022-10-03T06:13:05.958Z,99971.63
2022-10-03T06:15:39.596Z,99981.34
2022-10-03T06:18:32.231Z,99984.56
2022-10-03T06:21:56.852Z,99988.28
2022-10-03T06:24:56.235Z,99994.72
2022-10-03T06:27:48.755Z,100002.72
2022-10-03T06:30:22.022Z,100015.31
2022-10-03T06:33:11.169Z,100004.94
2022-10-03T06:36:11.896Z,100002.59
2022-10-03T06:39:10.701Z,100011.22
2022-10-03T06:42:08.971Z,100016.53
2022-10-03T06:44:55.080Z,100011.25
2022-10-03T06:47:39.175Z,100014.19
2022-10-03T06:51:00.863Z,100006.22
2022-10-03T06:53:45.439Z,100011.06
2022-10-03T06:56:31.805Z,99998.69
2022-10-03T06:59:36.330Z,100005.56
2022-10-03T07:02:20.317Z,100007.97
2022-10-03T07:05:02.708Z,100008.31
2022-10-03T07:08:02.508Z,100006.00
2022-10-03T07:10:54.591Z,100011.22
2022-10-03T07:14:00.841Z,100008.53
2022-10-03T07:17:03.161Z,100009.25
2022-10-03T07:20:02.279Z,100014.81
2022-10-03T07:22:35.643Z,100008.50
2022-10-03T07:25:25.633Z,100019.75
2022-10-03T07:27:59.073Z,100019.09
2022-10-03T07:30:32.137Z,100029.00
2022-10-03T07:33:27.764Z,100023.47
2022-10-03T07:36:56.337Z,100023.66
2022-10-03T07:39:43.303Z,100024.41
2022-10-03T07:42:42.429Z,100028.62
2022-10-03T07:45:37.999Z,100024.94
2022-10-03T07:48:18.202Z,100016.69
2022-10-03T07:51:04.248Z,100016.19
2022-10-03T07:53:53.726Z,100015.28
2022-10-03T07:56:49.071Z,100029.44
2022-10-03T08:00:02.809Z,100026.66
2022-10-03T08:03:17.025Z,100030.66
2022-10-03T08:06:06.742Z,100019.78
2022-10-03T08:08:50.439Z,100032.16
2022-10-03T08:11:41.601Z,100032.78
2022-10-03T08:14:19.044Z,100036.41
2022-10-03T08:17:04.873Z,100041.66
2022-10-03T08:19:50.324Z,100036.84
2022-10-03T08:22:36.563Z,100037.50
2022-10-03T08:25:20.100Z,100035.25
2022-10-03T08:28:10.788Z,100041.78
2022-10-03T08:31:09.306Z,100039.09
2022-10-03T08:34:01.755Z,100024.56
2022-10-03T08:36:59.815Z,100029.41
2022-10-03T08:39:45.516Z,100029.53
2022-10-03T08:42:38.631Z,100041.88
2022-10-03T08:45:43.123Z,100032.75
2022-10-03T08:48:40.895Z,100039.69
2022-10-03T08:51:49.994Z,100027.19
2022-10-03T08:55:02.364Z,100027.75
2022-10-03T08:57:41.094Z,100037.06
2022-10-03T09:00:22.815Z,100029.78
2022-10-03T09:03:28.636Z,100038.97
2022-10-03T09:06:24.372Z,100037.69
2022-10-03T09:09:12.069Z,100048.94
2022-10-03T09:12:24.474Z,100031.31
2022-10-03T09:15:01.045Z,100036.22
2022-10-03T09:17:46.826Z,100033.94
2022-10-03T09:20:25.908Z,100046.59
2022-10-03T09:23:16.162Z,100045.19
2022-10-03T09:26:21.179Z,100037.84
2022-10-03T09:29:06.269Z,100055.19
2022-10-03T09:32:11.045Z,100057.00
2022-10-03T09:34:54.804Z,100053.03
2022-10-03T09:38:00.105Z,100062.62
2022-10-03T09:41:00.716Z,100055.47
2022-10-03T09:43:45.833Z,100062.31
2022-10-03T09:46:40.893Z,100059.88
2022-10-03T09:49:52.460Z,100055.44
2022-10-03T09:52:33.083Z,100057.28
2022-10-03T09:55:12.643Z,100074.41
2022-10-03T09:58:15.452Z,100059.31
2022-10-03T10:01:11.362Z,100074.03
2022-10-03T10:04:11.519Z,100072.38
2022-10-03T10:07:08.182Z,100078.66
2022-10-03T10:10:13.804Z,100063.69
2022-10-03T10:13:11.983Z,100063.44
2022-10-03T10:15:53.383Z,100070.94
2022-10-03T10:18:54.294Z,100065.03
2022-10-03T10:21:46.410Z,100056.94
2022-10-03T10:24:22.614Z,100063.84
2022-10-03T10:27:19.664Z,100059.62
2022-10-03T10:30:02.672Z,100069.09
2022-10-03T10:32:52.267Z,100069.59
2022-10-03T10:35:39.402Z,100064.91
2022-10-03T10:38:25.943Z,100068.34
2022-10-03T10:41:17.636Z,100069.22
2022-10-03T10:44:07.125Z,100074.69
2022-10-03T10:46:59.075Z,100070.66
2022-10-03T10:49:41.615Z,100057.94
2022-10-03T10:52:29.279Z,100059.47
2022-10-03T10:55:19.518Z,100059.97
2022-10-03T10:58:05.104Z,100056.97
2022-10-03T11:00:44.753Z,100053.00
2022-10-03T11:03:50.396Z,100060.19
2022-10-03T11:06:45.945Z,100066.78
2022-10-03T11:09:28.473Z,100060.28
2022-10-03T11:12:27.130Z,100064.47
2022-10-03T11:15:15.639Z,100048.00
2022-10-03T11:17:47.562Z,100055.91
2022-10-03T11:20:49.312Z,100058.44
2022-10-03T11:23:50.925Z,100058.75
2022-10-03T11:27:00.842Z,100056.06
2022-10-03T11:29:39.449Z,100057.19
2022-10-03T11:32:46.631Z,100055.75
2022-10-03T11:35:32.697Z,100056.91
2022-10-03T11:38:25.320Z,100054.81
2022-10-03T11:41:01.938Z,100061.56
2022-10-03T11:43:53.376Z,100051.13
2022-10-03T11:46:59.731Z,100063.97
2022-10-03T11:49:49.143Z,100061.34
2022-10-03T11:52:35.288Z,100057.97
2022-10-03T11:55:08.804Z,100050.69
2022-10-03T11:57:39.268Z,100050.91
2022-10-03T12:00:16.706Z,100048.31
2022-10-03T12:03:08.167Z,100056.06
2022-10-03T12:05:46.270Z,100038.72
2022-10-03T12:08:38.668Z,100054.59
2022-10-03T12:11:18.011Z,100059.22
2022-10-03T12:14:11.779Z,100047.34
2022-10-03T12:17:15.860Z,100046.22
2022-10-03T12:19:46.283Z,100037.88
2022-10-03T12:22:22.912Z,100048.00
2022-10-03T12:24:50.751Z,100050.13
2022-10-03T12:28:01.614Z,100047.78
2022-10-03T12:30:55.446Z,100052.91
2022-10-03T12:33:51.654Z,100038.81
2022-10-03T12:36:45.217Z,100041.22
2022-10-03T12:39:44.948Z,100037.94
2022-10-03T12:42:19.649Z,100031.19
2022-10-03T12:45:25.721Z,100035.22
2022-10-03T12:47:56.076Z,100031.00
2022-10-03T12:51:01.906Z,100041.50
2022-10-03T12:53:41.877Z,100031.50
2022-10-03T12:56:18.357Z,100030.06
2022-10-03T12:58:53.700Z,100016.75
2022-10-03T13:01:20.885Z,100029.41
2022-10-03T13:03:54.567Z,100057.34
2022-10-03T13:07:04.571Z,100061.22
2022-10-03T13:09:43.943Z,100080.72
2022-10-03T13:12:34.883Z,100074.97
2022-10-03T13:15:40.475Z,100066.25
2022-10-03T13:18:18.406Z,100054.31
2022-10-03T13:21:26.770Z,100048.75
2022-10-03T13:24:04.545Z,100045.81
2022-10-03T13:26:56.674Z,100041.44
2022-10-03T13:29:40.483Z,100044.06
2022-10-03T13:32:32.456Z,100043.72
2022-10-03T13:35:36.953Z,100038.09
2022-10-03T13:38:28.371Z,100044.31
2022-10-03T13:41:04.072Z,100042.41
2022-10-03T13:43:36.207Z,100053.56
2022-10-03T13:46:16.809Z,100044.13
2022-10-03T13:48:51.515Z,100039.78
2022-10-03T13:51:25.216Z,100033.09
2022-10-03T13:54:07.905Z,100025.31
2022-10-03T13:56:38.612Z,100037.50
2022-10-03T13:59:21.882Z,100029.38
2022-10-03T14:02:08.838Z,100033.41
2022-10-03T14:04:55.388Z,100030.78
2022-10-03T14:07:39.275Z,100045.41
2022-10-03T14:10:19.681Z,100043.09
2022-10-03T14:13:17.403Z,100039.38
2022-10-03T14:15:47.637Z,100036.25
2022-10-03T14:18:37.553Z,100041.50
2022-10-03T14:21:39.998Z,100043.87
2022-10-03T14:24:37.011Z,100041.56
2022-10-03T14:27:38.927Z,100038.13
2022-10-03T14:30:13.039Z,100036.25
2022-10-03T14:32:59.525Z,100047.66
2022-10-03T14:35:39.647Z,100045.56
2022-10-03T14:38:54.056Z,100063.84
2022-10-03T14:41:26.428Z,100045.13
2022-10-03T14:43:57.002Z,100052.94
2022-10-03T14:46:26.273Z,100061.84
2022-10-03T14:48:59.421Z,100067.28
2022-10-03T14:51:31.551Z,100070.50
2022-10-03T14:54:02.902Z,100067.59
2022-10-03T14:56:34.935Z,100066.19
2022-10-03T14:59:12.016Z,100061.56
2022-10-03T15:01:49.577Z,100066.34
2022-10-03T15:04:32.108Z,100065.88
2022-10-03T15:07:02.736Z,100058.88
2022-10-03T15:09:40.898Z,100067.91
2022-10-03T15:12:24.210Z,100067.47
2022-10-03T15:15:00.084Z,100073.91
2022-10-03T15:17:30.438Z,100064.09
2022-10-03T15:19:59.945Z,100065.97
2022-10-03T15:22:42.333Z,100055.41
2022-10-03T15:25:17.794Z,100062.50
2022-10-03T15:27:53.920Z,100060.41
2022-10-03T15:30:31.815Z,100054.91
2022-10-03T15:33:25.988Z,100059.19
2022-10-03T15:35:55.440Z,100052.62
2022-10-03T15:38:26.792Z,100054.91
2022-10-03T15:41:00.455Z,100061.06
2022-10-03T15:43:34.357Z,100053.56
2022-10-03T15:46:05.502Z,100042.88
2022-10-03T15:48:33.188Z,100044.53
2022-10-03T15:51:17.208Z,100042.38
2022-10-03T15:53:48.178Z,100047.37
2022-10-03T15:56:43.862Z,100039.22
2022-10-03T15:59:21.980Z,100040.53
2022-10-03T16:01:52.628Z,100044.00
2022-10-03T16:04:24.252Z,100055.72
2022-10-03T16:07:10.883Z,100045.25
2022-10-03T16:09:56.591Z,100064.41
2022-10-03T16:12:45.904Z,100072.78
2022-10-03T16:15:27.492Z,100051.00
2022-10-03T16:18:01.111Z,100061.50
2022-10-03T16:20:29.643Z,100071.22
2022-10-03T16:22:59.132Z,100076.50
2022-10-03T16:25:40.339Z,100071.16
2022-10-03T16:28:12.565Z,100073.00
2022-10-03T16:30:47.478Z,100067.75
2022-10-03T16:33:23.717Z,100075.06
2022-10-03T16:35:53.739Z,100083.72
2022-10-03T16:38:24.401Z,100085.41
2022-10-03T16:41:10.471Z,100079.19
2022-10-03T16:43:38.121Z,100082.41
2022-10-03T16:46:09.822Z,100080.41
2022-10-03T16:48:55.859Z,100077.66
2022-10-03T16:51:43.166Z,100075.13
2022-10-03T16:54:15.589Z,100089.94
2022-10-03T16:56:51.104Z,100094.06
2022-10-03T16:59:20.034Z,100083.00
2022-10-03T17:01:54.088Z,100077.44
2022-10-03T17:04:21.535Z,100075.59
2022-10-03T17:06:51.200Z,100081.66
2022-10-03T17:09:49.257Z,100081.16
2022-10-03T17:12:21.842Z,100087.41
2022-10-03T17:14:49.053Z,100083.88
2022-10-03T17:17:45.008Z,100094.63
2022-10-03T17:20:18.581Z,100099.69
2022-10-03T17:23:00.596Z,100099.31
2022-10-03T17:25:34.628Z,100095.69
2022-10-03T17:28:06.363Z,100103.56
2022-10-03T17:30:45.982Z,100096.69
2022-10-03T17:33:18.478Z,100100.91
2022-10-03T17:36:24.729Z,100100.91
2022-10-03T17:39:20.844Z,100099.03
2022-10-03T17:42:33.804Z,100100.72
2022-10-03T17:45:16.606Z,100103.06
2022-10-03T17:47:46.905Z,100110.03
2022-10-03T17:50:26.459Z,100114.44
2022-10-03T17:52:54.145Z,100119.16
2022-10-03T17:55:31.164Z,100107.78
2022-10-03T17:58:17.660Z,100111.28
2022-10-03T18:00:45.245Z,100117.47
2022-10-03T18:03:53.337Z,100119.47
2022-10-03T18:06:20.542Z,100120.03
2022-10-03T18:08:50.338Z,100125.97
2022-10-03T18:11:23.868Z,100120.62
2022-10-03T18:13:55.165Z,100129.88
2022-10-03T18:16:36.291Z,100122.75
2022-10-03T18:19:36.453Z,100121.47
2022-10-03T18:22:08.225Z,100125.22
2022-10-03T18:25:34.645Z,100119.78
2022-10-03T18:28:39.277Z,100129.63
2022-10-03T18:31:10.694Z,100120.28
2022-10-03T18:33:51.045Z,100120.28
2022-10-03T18:36:25.931Z,100135.13
2022-10-03T18:39:17.175Z,100136.88
2022-10-03T18:41:47.508Z,100144.72
2022-10-03T18:44:18.606Z,100138.66
2022-10-03T18:46:50.799Z,100140.34
2022-10-03T18:49:36.201Z,100142.19
2022-10-03T18:52:10.706Z,100148.50
2022-10-03T18:54:41.074Z,100151.81
2022-10-03T18:57:22.236Z,100150.16
2022-10-03T19:00:14.106Z,100157.25
2022-10-03T19:02:47.820Z,100153.63
2022-10-03T19:05:21.870Z,100157.25
2022-10-03T19:07:55.902Z,100163.38
2022-10-03T19:10:39.170Z,100164.56
2022-10-03T19:13:29.498Z,100158.56
2022-10-03T19:16:16.871Z,100165.81
2022-10-03T19:18:53.761Z,100162.81
2022-10-03T19:21:22.578Z,100160.38
2022-10-03T19:24:14.901Z,100156.16
2022-10-03T19:26:47.641Z,100149.78
2022-10-03T19:29:21.663Z,100156.75
2022-10-03T19:31:59.274Z,100158.53
2022-10-03T19:34:37.092Z,100155.97
2022-10-03T19:37:16.252Z,100163.88
2022-10-03T19:39:44.297Z,100166.59
2022-10-03T19:42:33.564Z,100160.59
2022-10-03T19:45:01.359Z,100160.94
2022-10-03T19:47:31.871Z,100167.59
2022-10-03T19:50:19.113Z,100157.38
2022-10-03T19:52:48.213Z,100166.16
2022-10-03T19:55:24.873Z,100172.94
2022-10-03T19:57:54.979Z,100173.81
2022-10-03T20:00:39.351Z,100170.09
2022-10-03T20:03:12.498Z,100167.59
2022-10-03T20:06:01.840Z,100171.88
2022-10-03T20:09:01.952Z,100171.03
2022-10-03T20:11:42.716Z,100175.25
2022-10-03T20:14:34.261Z,100172.81
2022-10-03T20:17:10.521Z,100179.56
2022-10-03T20:19:54.265Z,100179.81
2022-10-03T20:22:31.288Z,100177.94
2022-10-03T20:25:00.096Z,100181.44
2022-10-03T20:27:27.296Z,100184.91
2022-10-03T20:30:24.592Z,100188.38
2022-10-03T20:32:53.632Z,100195.28
2022-10-03T20:35:27.224Z,100191.84
2022-10-03T20:38:02.265Z,100196.09
2022-10-03T20:40:36.397Z,100196.94
2022-10-03T20:43:20.013Z,100195.38
2022-10-03T20:46:10.800Z,100200.53
2022-10-03T20:48:42.811Z,100205.00
2022-10-03T20:51:21.249Z,100200.69
2022-10-03T20:53:53.147Z,100206.69
2022-10-03T20:56:25.385Z,100204.94
2022-10-03T20:58:57.024Z,100207.50
2022-10-03T21:01:26.082Z,100207.72
2022-10-03T21:04:27.933Z,100210.41
2022-10-03T21:07:05.865Z,100201.59
2022-10-03T21:09:43.577Z,100209.47
2022-10-03T21:12:17.159Z,100213.91
2022-10-03T21:14:48.808Z,100219.09
2022-10-03T21:17:17.428Z,100219.87
2022-10-03T21:19:52.388Z,100221.69
2022-10-03T21:22:23.237Z,100219.16
2022-10-03T21:24:59.244Z,100220.22
2022-10-03T21:27:27.113Z,100222.72
2022-10-03T21:30:18.530Z,100228.88
2022-10-03T21:32:54.880Z,100228.16
2022-10-03T21:35:34.064Z,100230.81
2022-10-03T21:38:32.188Z,100233.47
2022-10-03T21:41:38.762Z,100226.50
2022-10-03T21:44:29.505Z,100225.53
2022-10-03T21:47:10.224Z,100223.81
2022-10-03T21:49:47.639Z,100231.69
2022-10-03T21:52:27.308Z,100222.22
2022-10-03T21:55:21.674Z,100232.63
2022-10-03T21:58:22.986Z,100223.13
2022-10-03T22:00:59.377Z,100225.84
2022-10-03T22:03:54.400Z,100218.00
2022-10-03T22:06:27.288Z,100222.44
2022-10-03T22:09:01.201Z,100232.09
2022-10-03T22:11:28.361Z,100235.50
2022-10-03T22:14:10.060Z,100228.59
2022-10-03T22:17:09.497Z,100239.78
2022-10-03T22:19:42.060Z,100241.59
2022-10-03T22:22:28.778Z,100245.03
2022-10-03T22:25:24.358Z,100245.75
2022-10-03T22:28:10.412Z,100239.78
2022-10-03T22:30:44.863Z,100243.22
2022-10-03T22:33:44.462Z,100238.81
2022-10-03T22:36:12.540Z,100251.03
2022-10-03T22:38:40.771Z,100243.38
2022-10-03T22:41:12.269Z,100238.91
2022-10-03T22:43:40.895Z,100240.59
2022-10-03T22:46:11.605Z,100225.75
2022-10-03T22:48:55.504Z,100232.69
2022-10-03T22:51:23.478Z,100232.84
2022-10-03T22:53:54.195Z,100225.69
2022-10-03T22:56:58.537Z,100226.66
2022-10-03T22:59:29.893Z,100213.63
2022-10-03T23:01:59.846Z,100216.97
2022-10-03T23:04:50.116Z,100218.66
2022-10-03T23:08:07.115Z,100219.59
2022-10-03T23:10:40.655Z,100213.56
2022-10-03T23:13:17.275Z,100217.16
2022-10-03T23:15:49.123Z,100216.31
2022-10-03T23:18:39.027Z,100217.16
2022-10-03T23:21:11.037Z,100213.66
2022-10-03T23:23:50.585Z,100208.38
2022-10-03T23:26:32.629Z,100221.44
2022-10-03T23:29:10.464Z,100215.47
2022-10-03T23:32:00.093Z,100212.81
2022-10-03T23:34:36.373Z,100213.63
2022-10-03T23:37:13.219Z,100218.91
2022-10-03T23:39:46.255Z,100222.44
2022-10-03T23:42:32.375Z,100213.66
2022-10-03T23:45:00.732Z,100214.56
2022-10-03T23:47:33.831Z,100212.88
2022-10-03T23:50:03.107Z,100213.84
2022-10-03T23:52:36.628Z,100210.37
2022-10-03T23:55:06.268Z,100217.44
2022-10-03T23:57:37.620Z,100200.75
